sensor_id;sensor_type;location;lat;lon;timestamp;P1;durP1;ratioP1;P2;durP2;ratioP2
24411;SDS011;12544;46.760;15.942;2023-04-22T00:00:48;10.65;;;8.00;;
24411;SDS011;12544;46.760;15.942;2023-04-22T00:03:14;9.30;;;7.10;;
24411;SDS011;12544;46.760;15.942;2023-04-22T00:05:40;8.85;;;7.95;;
24411;SDS011;12544;46.760;15.942;2023-04-22T00:08:06;13.38;;;8.77;;
24411;SDS011;12544;46.760;15.942;2023-04-22T00:10:32;8.48;;;7.55;;
24411;SDS011;12544;46.760;15.942;2023-04-22T00:12:58;11.02;;;9.00;;
24411;SDS011;12544;46.760;15.942;2023-04-22T00:15:24;9.55;;;8.68;;
24411;SDS011;12544;46.760;15.942;2023-04-22T00:17:51;10.82;;;7.82;;
24411;SDS011;12544;46.760;15.942;2023-04-22T00:20:18;9.45;;;8.55;;
24411;SDS011;12544;46.760;15.942;2023-04-22T00:22:45;11.18;;;7.85;;
24411;SDS011;12544;46.760;15.942;2023-04-22T00:25:11;13.32;;;8.20;;
24411;SDS011;12544;46.760;15.942;2023-04-22T00:27:37;9.15;;;8.15;;
24411;SDS011;12544;46.760;15.942;2023-04-22T00:30:03;11.77;;;8.60;;
24411;SDS011;12544;46.760;15.942;2023-04-22T00:32:29;16.42;;;8.30;;
24411;SDS011;12544;46.760;15.942;2023-04-22T00:34:55;9.48;;;8.55;;
24411;SDS011;12544;46.760;15.942;2023-04-22T00:37:22;10.68;;;7.95;;
24411;SDS011;12544;46.760;15.942;2023-04-22T00:39:49;8.23;;;7.00;;
24411;SDS011;12544;46.760;15.942;2023-04-22T00:45:37;8.50;;;7.63;;
24411;SDS011;12544;46.760;15.942;2023-04-22T00:48:04;14.25;;;9.98;;
24411;SDS011;12544;46.760;15.942;2023-04-22T00:50:29;12.07;;;8.30;;
24411;SDS011;12544;46.760;15.942;2023-04-22T00:52:55;9.27;;;7.28;;
24411;SDS011;12544;46.760;15.942;2023-04-22T00:55:21;8.50;;;7.60;;
24411;SDS011;12544;46.760;15.942;2023-04-22T00:57:47;8.50;;;7.25;;
24411;SDS011;12544;46.760;15.942;2023-04-22T01:00:14;10.43;;;7.05;;
24411;SDS011;12544;46.760;15.942;2023-04-22T01:02:40;9.23;;;8.32;;
24411;SDS011;12544;46.760;15.942;2023-04-22T01:05:06;10.02;;;7.10;;
24411;SDS011;12544;46.760;15.942;2023-04-22T01:07:35;9.23;;;7.18;;
24411;SDS011;12544;46.760;15.942;2023-04-22T01:10:03;9.57;;;7.68;;
24411;SDS011;12544;46.760;15.942;2023-04-22T01:12:30;10.10;;;8.73;;
24411;SDS011;12544;46.760;15.942;2023-04-22T01:14:55;8.98;;;8.15;;
24411;SDS011;12544;46.760;15.942;2023-04-22T01:17:21;9.85;;;8.68;;
24411;SDS011;12544;46.760;15.942;2023-04-22T01:19:48;9.82;;;8.73;;
24411;SDS011;12544;46.760;15.942;2023-04-22T01:22:15;10.10;;;8.38;;
24411;SDS011;12544;46.760;15.942;2023-04-22T01:24:41;11.43;;;8.00;;
24411;SDS011;12544;46.760;15.942;2023-04-22T01:27:07;11.02;;;8.45;;
24411;SDS011;12544;46.760;15.942;2023-04-22T01:29:33;12.32;;;9.73;;
24411;SDS011;12544;46.760;15.942;2023-04-22T01:35:20;10.35;;;9.45;;
24411;SDS011;12544;46.760;15.942;2023-04-22T01:37:46;10.02;;;8.82;;
24411;SDS011;12544;46.760;15.942;2023-04-22T01:40:12;11.25;;;9.93;;
24411;SDS011;12544;46.760;15.942;2023-04-22T01:42:40;11.35;;;9.50;;
24411;SDS011;12544;46.760;15.942;2023-04-22T01:45:06;10.02;;;8.40;;
24411;SDS011;12544;46.760;15.942;2023-04-22T01:47:32;12.15;;;9.70;;
24411;SDS011;12544;46.760;15.942;2023-04-22T01:49:57;11.38;;;9.20;;
24411;SDS011;12544;46.760;15.942;2023-04-22T01:52:23;10.63;;;9.50;;
24411;SDS011;12544;46.760;15.942;2023-04-22T01:54:51;12.05;;;9.32;;
24411;SDS011;12544;46.760;15.942;2023-04-22T01:57:17;13.05;;;10.70;;
24411;SDS011;12544;46.760;15.942;2023-04-22T01:59:43;15.02;;;11.02;;
24411;SDS011;12544;46.760;15.942;2023-04-22T02:02:17;11.10;;;9.95;;
24411;SDS011;12544;46.760;15.942;2023-04-22T02:04:42;13.95;;;9.45;;
24411;SDS011;12544;46.760;15.942;2023-04-22T02:07:08;10.48;;;9.48;;
24411;SDS011;12544;46.760;15.942;2023-04-22T02:09:34;11.82;;;9.70;;
24411;SDS011;12544;46.760;15.942;2023-04-22T02:11:59;10.57;;;9.55;;
24411;SDS011;12544;46.760;15.942;2023-04-22T02:14:25;13.00;;;10.35;;
24411;SDS011;12544;46.760;15.942;2023-04-22T02:16:51;14.70;;;10.63;;
24411;SDS011;12544;46.760;15.942;2023-04-22T02:19:16;12.38;;;11.05;;
24411;SDS011;12544;46.760;15.942;2023-04-22T02:21:42;11.50;;;9.73;;
24411;SDS011;12544;46.760;15.942;2023-04-22T02:24:08;12.00;;;9.63;;
24411;SDS011;12544;46.760;15.942;2023-04-22T02:26:33;11.02;;;9.30;;
24411;SDS011;12544;46.760;15.942;2023-04-22T02:28:59;11.35;;;9.68;;
24411;SDS011;12544;46.760;15.942;2023-04-22T02:31:25;10.45;;;9.30;;
24411;SDS011;12544;46.760;15.942;2023-04-22T02:40:05;10.50;;;9.50;;
24411;SDS011;12544;46.760;15.942;2023-04-22T02:42:32;11.45;;;10.25;;
24411;SDS011;12544;46.760;15.942;2023-04-22T02:44:57;13.27;;;9.23;;
24411;SDS011;12544;46.760;15.942;2023-04-22T02:47:23;9.73;;;8.40;;
24411;SDS011;12544;46.760;15.942;2023-04-22T02:49:49;9.23;;;8.07;;
24411;SDS011;12544;46.760;15.942;2023-04-22T02:52:14;14.13;;;9.02;;
24411;SDS011;12544;46.760;15.942;2023-04-22T02:54:40;12.40;;;9.25;;
24411;SDS011;12544;46.760;15.942;2023-04-22T02:57:06;12.35;;;9.88;;
24411;SDS011;12544;46.760;15.942;2023-04-22T02:59:39;10.38;;;8.98;;
24411;SDS011;12544;46.760;15.942;2023-04-22T03:04:30;9.55;;;8.57;;
24411;SDS011;12544;46.760;15.942;2023-04-22T03:06:56;10.02;;;9.00;;
24411;SDS011;12544;46.760;15.942;2023-04-22T03:09:22;10.05;;;9.15;;
24411;SDS011;12544;46.760;15.942;2023-04-22T03:11:48;11.73;;;9.95;;
24411;SDS011;12544;46.760;15.942;2023-04-22T03:14:13;10.50;;;9.50;;
24411;SDS011;12544;46.760;15.942;2023-04-22T03:16:39;9.80;;;8.77;;
24411;SDS011;12544;46.760;15.942;2023-04-22T03:19:05;12.40;;;10.18;;
24411;SDS011;12544;46.760;15.942;2023-04-22T03:21:30;12.95;;;10.15;;
24411;SDS011;12544;46.760;15.942;2023-04-22T03:23:56;11.13;;;9.82;;
24411;SDS011;12544;46.760;15.942;2023-04-22T03:26:22;11.18;;;10.00;;
24411;SDS011;12544;46.760;15.942;2023-04-22T03:28:48;10.90;;;9.75;;
24411;SDS011;12544;46.760;15.942;2023-04-22T03:31:18;12.52;;;9.82;;
24411;SDS011;12544;46.760;15.942;2023-04-22T03:33:43;12.23;;;9.98;;
24411;SDS011;12544;46.760;15.942;2023-04-22T03:36:09;11.20;;;10.05;;
24411;SDS011;12544;46.760;15.942;2023-04-22T03:38:35;12.50;;;9.82;;
24411;SDS011;12544;46.760;15.942;2023-04-22T03:41:00;13.40;;;9.50;;
24411;SDS011;12544;46.760;15.942;2023-04-22T03:43:26;11.98;;;10.45;;
24411;SDS011;12544;46.760;15.942;2023-04-22T03:45:51;10.23;;;9.15;;
24411;SDS011;12544;46.760;15.942;2023-04-22T03:48:17;12.18;;;9.45;;
24411;SDS011;12544;46.760;15.942;2023-04-22T03:50:43;11.02;;;9.90;;
24411;SDS011;12544;46.760;15.942;2023-04-22T03:53:08;13.98;;;10.52;;
24411;SDS011;12544;46.760;15.942;2023-04-22T03:55:34;12.80;;;9.80;;
24411;SDS011;12544;46.760;15.942;2023-04-22T03:58:00;14.25;;;10.32;;
24411;SDS011;12544;46.760;15.942;2023-04-22T04:00:26;11.80;;;10.38;;
24411;SDS011;12544;46.760;15.942;2023-04-22T04:02:51;24.52;;;9.50;;
24411;SDS011;12544;46.760;15.942;2023-04-22T04:05:17;12.65;;;9.73;;
24411;SDS011;12544;46.760;15.942;2023-04-22T04:07:44;14.63;;;10.15;;
24411;SDS011;12544;46.760;15.942;2023-04-22T04:10:09;11.38;;;10.23;;
24411;SDS011;12544;46.760;15.942;2023-04-22T04:12:35;12.90;;;10.38;;
24411;SDS011;12544;46.760;15.942;2023-04-22T04:15:01;15.57;;;10.27;;
24411;SDS011;12544;46.760;15.942;2023-04-22T04:17:27;14.73;;;11.25;;
24411;SDS011;12544;46.760;15.942;2023-04-22T04:19:53;16.45;;;10.05;;
24411;SDS011;12544;46.760;15.942;2023-04-22T04:22:19;13.85;;;11.25;;
24411;SDS011;12544;46.760;15.942;2023-04-22T04:24:45;11.98;;;10.23;;
24411;SDS011;12544;46.760;15.942;2023-04-22T04:27:11;11.82;;;9.90;;
24411;SDS011;12544;46.760;15.942;2023-04-22T04:29:37;12.90;;;10.38;;
24411;SDS011;12544;46.760;15.942;2023-04-22T04:32:05;12.20;;;10.90;;
24411;SDS011;12544;46.760;15.942;2023-04-22T04:34:34;13.65;;;10.45;;
24411;SDS011;12544;46.760;15.942;2023-04-22T04:37:01;13.07;;;11.63;;
24411;SDS011;12544;46.760;15.942;2023-04-22T04:39:27;17.77;;;12.13;;
24411;SDS011;12544;46.760;15.942;2023-04-22T04:41:53;13.70;;;12.40;;
24411;SDS011;12544;46.760;15.942;2023-04-22T04:44:19;16.42;;;13.10;;
24411;SDS011;12544;46.760;15.942;2023-04-22T04:46:48;16.55;;;12.70;;
24411;SDS011;12544;46.760;15.942;2023-04-22T04:49:14;16.58;;;11.75;;
24411;SDS011;12544;46.760;15.942;2023-04-22T04:51:40;19.13;;;11.85;;
24411;SDS011;12544;46.760;15.942;2023-04-22T04:54:06;15.27;;;11.70;;
24411;SDS011;12544;46.760;15.942;2023-04-22T04:56:32;12.15;;;10.50;;
24411;SDS011;12544;46.760;15.942;2023-04-22T04:58:58;13.32;;;11.88;;
24411;SDS011;12544;46.760;15.942;2023-04-22T05:01:23;14.65;;;13.20;;
24411;SDS011;12544;46.760;15.942;2023-04-22T05:03:49;20.45;;;15.93;;
24411;SDS011;12544;46.760;15.942;2023-04-22T05:06:21;16.30;;;14.70;;
24411;SDS011;12544;46.760;15.942;2023-04-22T05:08:46;14.93;;;13.50;;
24411;SDS011;12544;46.760;15.942;2023-04-22T05:11:12;15.65;;;13.27;;
24411;SDS011;12544;46.760;15.942;2023-04-22T05:13:38;16.95;;;15.27;;
24411;SDS011;12544;46.760;15.942;2023-04-22T05:16:03;20.23;;;17.10;;
24411;SDS011;12544;46.760;15.942;2023-04-22T05:18:29;21.52;;;16.33;;
24411;SDS011;12544;46.760;15.942;2023-04-22T05:20:55;18.83;;;15.02;;
24411;SDS011;12544;46.760;15.942;2023-04-22T05:23:23;17.65;;;14.75;;
24411;SDS011;12544;46.760;15.942;2023-04-22T05:25:50;15.77;;;13.40;;
24411;SDS011;12544;46.760;15.942;2023-04-22T05:28:16;15.52;;;13.73;;
24411;SDS011;12544;46.760;15.942;2023-04-22T05:30:41;15.15;;;13.45;;
24411;SDS011;12544;46.760;15.942;2023-04-22T05:33:07;21.27;;;13.32;;
24411;SDS011;12544;46.760;15.942;2023-04-22T05:35:33;19.38;;;13.13;;
24411;SDS011;12544;46.760;15.942;2023-04-22T05:37:59;14.38;;;12.95;;
24411;SDS011;12544;46.760;15.942;2023-04-22T05:40:26;20.80;;;15.00;;
24411;SDS011;12544;46.760;15.942;2023-04-22T05:42:52;14.75;;;12.93;;
24411;SDS011;12544;46.760;15.942;2023-04-22T05:45:18;16.15;;;12.45;;
24411;SDS011;12544;46.760;15.942;2023-04-22T05:47:43;16.60;;;12.23;;
24411;SDS011;12544;46.760;15.942;2023-04-22T05:50:09;12.82;;;11.52;;
24411;SDS011;12544;46.760;15.942;2023-04-22T05:52:35;13.32;;;11.38;;
24411;SDS011;12544;46.760;15.942;2023-04-22T05:55:01;13.40;;;11.75;;
24411;SDS011;12544;46.760;15.942;2023-04-22T05:57:26;12.40;;;11.25;;
24411;SDS011;12544;46.760;15.942;2023-04-22T05:59:52;13.98;;;11.50;;
24411;SDS011;12544;46.760;15.942;2023-04-22T06:02:18;14.75;;;12.95;;
24411;SDS011;12544;46.760;15.942;2023-04-22T06:08:00;13.05;;;11.13;;
24411;SDS011;12544;46.760;15.942;2023-04-22T06:10:25;16.15;;;14.38;;
24411;SDS011;12544;46.760;15.942;2023-04-22T06:12:51;14.73;;;11.55;;
24411;SDS011;12544;46.760;15.942;2023-04-22T06:15:17;13.55;;;10.98;;
24411;SDS011;12544;46.760;15.942;2023-04-22T06:17:42;13.30;;;10.70;;
24411;SDS011;12544;46.760;15.942;2023-04-22T06:20:09;11.98;;;10.70;;
24411;SDS011;12544;46.760;15.942;2023-04-22T06:22:35;16.38;;;11.57;;
24411;SDS011;12544;46.760;15.942;2023-04-22T06:25:01;13.80;;;10.98;;
24411;SDS011;12544;46.760;15.942;2023-04-22T06:27:27;12.75;;;11.52;;
24411;SDS011;12544;46.760;15.942;2023-04-22T06:29:54;15.27;;;12.48;;
24411;SDS011;12544;46.760;15.942;2023-04-22T06:32:19;15.40;;;11.00;;
24411;SDS011;12544;46.760;15.942;2023-04-22T06:34:45;14.10;;;10.90;;
24411;SDS011;12544;46.760;15.942;2023-04-22T06:37:10;11.48;;;10.27;;
24411;SDS011;12544;46.760;15.942;2023-04-22T06:39:36;13.43;;;10.68;;
24411;SDS011;12544;46.760;15.942;2023-04-22T06:42:02;10.63;;;9.70;;
24411;SDS011;12544;46.760;15.942;2023-04-22T06:44:28;14.27;;;9.75;;
24411;SDS011;12544;46.760;15.942;2023-04-22T06:46:53;14.23;;;10.80;;
24411;SDS011;12544;46.760;15.942;2023-04-22T06:49:19;9.93;;;8.88;;
24411;SDS011;12544;46.760;15.942;2023-04-22T06:51:45;12.88;;;10.05;;
24411;SDS011;12544;46.760;15.942;2023-04-22T06:54:11;13.48;;;10.68;;
24411;SDS011;12544;46.760;15.942;2023-04-22T06:56:36;11.50;;;10.30;;
24411;SDS011;12544;46.760;15.942;2023-04-22T06:59:02;10.98;;;9.98;;
24411;SDS011;12544;46.760;15.942;2023-04-22T07:01:28;14.23;;;10.10;;
24411;SDS011;12544;46.760;15.942;2023-04-22T07:03:53;10.18;;;9.05;;
24411;SDS011;12544;46.760;15.942;2023-04-22T07:06:19;10.55;;;9.55;;
24411;SDS011;12544;46.760;15.942;2023-04-22T07:08:45;9.40;;;8.57;;
24411;SDS011;12544;46.760;15.942;2023-04-22T07:11:10;9.80;;;8.90;;
24411;SDS011;12544;46.760;15.942;2023-04-22T07:13:36;9.45;;;8.45;;
24411;SDS011;12544;46.760;15.942;2023-04-22T07:16:01;9.07;;;8.02;;
24411;SDS011;12544;46.760;15.942;2023-04-22T07:18:27;7.90;;;7.10;;
24411;SDS011;12544;46.760;15.942;2023-04-22T07:20:53;10.48;;;8.43;;
24411;SDS011;12544;46.760;15.942;2023-04-22T07:23:19;9.10;;;6.60;;
24411;SDS011;12544;46.760;15.942;2023-04-22T07:25:45;10.93;;;7.03;;
24411;SDS011;12544;46.760;15.942;2023-04-22T07:28:11;7.60;;;6.85;;
24411;SDS011;12544;46.760;15.942;2023-04-22T07:30:36;13.57;;;8.13;;
24411;SDS011;12544;46.760;15.942;2023-04-22T07:33:02;6.90;;;6.30;;
24411;SDS011;12544;46.760;15.942;2023-04-22T07:35:27;9.20;;;7.80;;
24411;SDS011;12544;46.760;15.942;2023-04-22T07:37:53;9.10;;;8.20;;
24411;SDS011;12544;46.760;15.942;2023-04-22T07:40:19;8.05;;;7.35;;
24411;SDS011;12544;46.760;15.942;2023-04-22T07:42:45;8.27;;;7.43;;
24411;SDS011;12544;46.760;15.942;2023-04-22T07:45:11;7.88;;;6.00;;
24411;SDS011;12544;46.760;15.942;2023-04-22T07:47:37;8.02;;;6.30;;
24411;SDS011;12544;46.760;15.942;2023-04-22T07:50:03;7.70;;;6.53;;
24411;SDS011;12544;46.760;15.942;2023-04-22T07:52:29;8.40;;;7.50;;
24411;SDS011;12544;46.760;15.942;2023-04-22T07:54:55;7.82;;;7.10;;
24411;SDS011;12544;46.760;15.942;2023-04-22T07:57:21;10.73;;;6.57;;
24411;SDS011;12544;46.760;15.942;2023-04-22T07:59:47;8.48;;;5.72;;
24411;SDS011;12544;46.760;15.942;2023-04-22T08:02:13;6.93;;;6.25;;
24411;SDS011;12544;46.760;15.942;2023-04-22T08:04:45;7.57;;;6.03;;
24411;SDS011;12544;46.760;15.942;2023-04-22T08:07:10;8.82;;;5.88;;
24411;SDS011;12544;46.760;15.942;2023-04-22T08:09:38;6.90;;;6.20;;
24411;SDS011;12544;46.760;15.942;2023-04-22T08:12:04;8.13;;;6.93;;
24411;SDS011;12544;46.760;15.942;2023-04-22T08:14:30;7.63;;;6.68;;
24411;SDS011;12544;46.760;15.942;2023-04-22T08:16:55;11.00;;;6.75;;
24411;SDS011;12544;46.760;15.942;2023-04-22T08:19:21;7.88;;;6.35;;
24411;SDS011;12544;46.760;15.942;2023-04-22T08:21:46;7.32;;;6.63;;
24411;SDS011;12544;46.760;15.942;2023-04-22T08:24:12;7.70;;;6.90;;
24411;SDS011;12544;46.760;15.942;2023-04-22T08:26:38;6.45;;;5.95;;
24411;SDS011;12544;46.760;15.942;2023-04-22T08:29:05;6.97;;;6.25;;
24411;SDS011;12544;46.760;15.942;2023-04-22T08:31:30;6.97;;;5.65;;
24411;SDS011;12544;46.760;15.942;2023-04-22T08:33:56;6.78;;;6.07;;
24411;SDS011;12544;46.760;15.942;2023-04-22T08:36:22;9.02;;;6.22;;
24411;SDS011;12544;46.760;15.942;2023-04-22T08:38:50;9.98;;;6.68;;
24411;SDS011;12544;46.760;15.942;2023-04-22T08:41:16;6.43;;;5.82;;
24411;SDS011;12544;46.760;15.942;2023-04-22T08:43:43;8.38;;;5.78;;
24411;SDS011;12544;46.760;15.942;2023-04-22T08:46:10;6.45;;;5.85;;
24411;SDS011;12544;46.760;15.942;2023-04-22T08:48:36;7.78;;;5.20;;
24411;SDS011;12544;46.760;15.942;2023-04-22T08:51:02;6.03;;;5.43;;
24411;SDS011;12544;46.760;15.942;2023-04-22T08:53:29;7.82;;;5.18;;
24411;SDS011;12544;46.760;15.942;2023-04-22T08:55:55;6.78;;;5.13;;
24411;SDS011;12544;46.760;15.942;2023-04-22T08:58:21;5.80;;;5.20;;
24411;SDS011;12544;46.760;15.942;2023-04-22T09:00:48;5.72;;;5.13;;
24411;SDS011;12544;46.760;15.942;2023-04-22T09:03:14;5.90;;;4.60;;
24411;SDS011;12544;46.760;15.942;2023-04-22T09:05:40;7.30;;;4.88;;
24411;SDS011;12544;46.760;15.942;2023-04-22T09:08:07;5.30;;;4.72;;
24411;SDS011;12544;46.760;15.942;2023-04-22T09:10:37;5.95;;;4.78;;
24411;SDS011;12544;46.760;15.942;2023-04-22T09:13:03;8.27;;;6.00;;
24411;SDS011;12544;46.760;15.942;2023-04-22T09:15:31;7.22;;;4.97;;
24411;SDS011;12544;46.760;15.942;2023-04-22T09:17:57;5.90;;;5.07;;
24411;SDS011;12544;46.760;15.942;2023-04-22T09:20:27;6.45;;;5.45;;
24411;SDS011;12544;46.760;15.942;2023-04-22T09:22:54;7.85;;;5.38;;
24411;SDS011;12544;46.760;15.942;2023-04-22T09:25:22;5.75;;;5.15;;
24411;SDS011;12544;46.760;15.942;2023-04-22T09:27:50;7.18;;;4.70;;
24411;SDS011;12544;46.760;15.942;2023-04-22T09:33:02;8.90;;;4.07;;
24411;SDS011;12544;46.760;15.942;2023-04-22T09:35:30;7.68;;;3.00;;
24411;SDS011;12544;46.760;15.942;2023-04-22T09:37:58;7.90;;;3.05;;
24411;SDS011;12544;46.760;15.942;2023-04-22T09:40:25;4.78;;;2.88;;
24411;SDS011;12544;46.760;15.942;2023-04-22T09:42:53;10.50;;;3.75;;
24411;SDS011;12544;46.760;15.942;2023-04-22T09:48:01;6.43;;;3.22;;
24411;SDS011;12544;46.760;15.942;2023-04-22T09:50:30;4.93;;;2.90;;
24411;SDS011;12544;46.760;15.942;2023-04-22T09:52:57;5.70;;;3.40;;
24411;SDS011;12544;46.760;15.942;2023-04-22T09:55:27;5.93;;;3.00;;
24411;SDS011;12544;46.760;15.942;2023-04-22T09:57:54;7.93;;;3.70;;
24411;SDS011;12544;46.760;15.942;2023-04-22T10:00:22;6.30;;;3.10;;
24411;SDS011;12544;46.760;15.942;2023-04-22T10:02:49;4.20;;;3.22;;
24411;SDS011;12544;46.760;15.942;2023-04-22T10:05:15;6.75;;;3.35;;
24411;SDS011;12544;46.760;15.942;2023-04-22T10:07:42;6.18;;;3.22;;
24411;SDS011;12544;46.760;15.942;2023-04-22T10:10:08;7.28;;;3.10;;
24411;SDS011;12544;46.760;15.942;2023-04-22T10:12:34;4.78;;;2.85;;
24411;SDS011;12544;46.760;15.942;2023-04-22T10:15:01;4.88;;;2.80;;
24411;SDS011;12544;46.760;15.942;2023-04-22T10:17:31;5.65;;;2.78;;
24411;SDS011;12544;46.760;15.942;2023-04-22T10:20:00;4.45;;;3.22;;
24411;SDS011;12544;46.760;15.942;2023-04-22T10:22:29;5.93;;;3.60;;
24411;SDS011;12544;46.760;15.942;2023-04-22T10:24:56;6.53;;;3.15;;
24411;SDS011;12544;46.760;15.942;2023-04-22T10:27:23;3.47;;;3.08;;
24411;SDS011;12544;46.760;15.942;2023-04-22T10:29:48;4.35;;;3.10;;
24411;SDS011;12544;46.760;15.942;2023-04-22T10:34:45;5.47;;;3.25;;
24411;SDS011;12544;46.760;15.942;2023-04-22T10:37:12;5.07;;;3.58;;
24411;SDS011;12544;46.760;15.942;2023-04-22T10:39:41;6.30;;;3.50;;
24411;SDS011;12544;46.760;15.942;2023-04-22T10:42:27;3.85;;;3.55;;
24411;SDS011;12544;46.760;15.942;2023-04-22T10:44:58;7.10;;;4.28;;
24411;SDS011;12544;46.760;15.942;2023-04-22T10:47:26;5.60;;;3.28;;
24411;SDS011;12544;46.760;15.942;2023-04-22T10:52:38;5.10;;;3.60;;
24411;SDS011;12544;46.760;15.942;2023-04-22T10:55:05;8.23;;;4.00;;
24411;SDS011;12544;46.760;15.942;2023-04-22T10:57:38;5.70;;;3.17;;
24411;SDS011;12544;46.760;15.942;2023-04-22T11:00:27;4.70;;;3.90;;
24411;SDS011;12544;46.760;15.942;2023-04-22T11:05:31;7.95;;;3.67;;
24411;SDS011;12544;46.760;15.942;2023-04-22T11:08:17;5.57;;;3.63;;
24411;SDS011;12544;46.760;15.942;2023-04-22T11:10:50;3.90;;;3.47;;
24411;SDS011;12544;46.760;15.942;2023-04-22T11:13:19;6.35;;;3.40;;
24411;SDS011;12544;46.760;15.942;2023-04-22T11:15:50;4.97;;;3.88;;
24411;SDS011;12544;46.760;15.942;2023-04-22T11:18:20;6.78;;;3.60;;
24411;SDS011;12544;46.760;15.942;2023-04-22T11:20:51;4.68;;;3.47;;
24411;SDS011;12544;46.760;15.942;2023-04-22T11:23:24;8.25;;;3.75;;
24411;SDS011;12544;46.760;15.942;2023-04-22T11:25:55;5.00;;;2.92;;
24411;SDS011;12544;46.760;15.942;2023-04-22T11:28:21;6.82;;;3.20;;
24411;SDS011;12544;46.760;15.942;2023-04-22T11:30:47;8.32;;;3.55;;
24411;SDS011;12544;46.760;15.942;2023-04-22T11:33:13;4.75;;;4.05;;
24411;SDS011;12544;46.760;15.942;2023-04-22T11:35:40;4.38;;;3.75;;
24411;SDS011;12544;46.760;15.942;2023-04-22T11:38:08;6.53;;;3.28;;
24411;SDS011;12544;46.760;15.942;2023-04-22T11:40:38;5.65;;;3.00;;
24411;SDS011;12544;46.760;15.942;2023-04-22T11:43:06;9.93;;;3.10;;
24411;SDS011;12544;46.760;15.942;2023-04-22T11:45:33;7.43;;;3.42;;
24411;SDS011;12544;46.760;15.942;2023-04-22T11:48:01;6.75;;;3.30;;
24411;SDS011;12544;46.760;15.942;2023-04-22T11:50:29;4.78;;;3.40;;
24411;SDS011;12544;46.760;15.942;2023-04-22T11:53:00;4.97;;;2.92;;
24411;SDS011;12544;46.760;15.942;2023-04-22T11:55:31;4.72;;;2.67;;
24411;SDS011;12544;46.760;15.942;2023-04-22T11:58:05;5.88;;;3.50;;
24411;SDS011;12544;46.760;15.942;2023-04-22T12:03:13;5.05;;;3.50;;
24411;SDS011;12544;46.760;15.942;2023-04-22T12:05:52;3.47;;;3.00;;
24411;SDS011;12544;46.760;15.942;2023-04-22T12:08:20;7.30;;;4.20;;
24411;SDS011;12544;46.760;15.942;2023-04-22T12:13:31;5.03;;;3.55;;
24411;SDS011;12544;46.760;15.942;2023-04-22T12:15:58;4.82;;;2.75;;
24411;SDS011;12544;46.760;15.942;2023-04-22T12:18:29;4.80;;;2.90;;
24411;SDS011;12544;46.760;15.942;2023-04-22T12:20:58;4.82;;;2.75;;
24411;SDS011;12544;46.760;15.942;2023-04-22T12:23:42;4.55;;;2.50;;
24411;SDS011;12544;46.760;15.942;2023-04-22T12:26:12;4.95;;;3.25;;
24411;SDS011;12544;46.760;15.942;2023-04-22T12:28:40;2.92;;;2.55;;
24411;SDS011;12544;46.760;15.942;2023-04-22T12:31:07;4.07;;;3.10;;
24411;SDS011;12544;46.760;15.942;2023-04-22T12:33:34;4.13;;;3.03;;
24411;SDS011;12544;46.760;15.942;2023-04-22T12:36:00;7.03;;;3.13;;
24411;SDS011;12544;46.760;15.942;2023-04-22T12:38:26;7.15;;;3.20;;
24411;SDS011;12544;46.760;15.942;2023-04-22T12:40:52;5.55;;;3.42;;
24411;SDS011;12544;46.760;15.942;2023-04-22T12:43:18;5.95;;;3.17;;
24411;SDS011;12544;46.760;15.942;2023-04-22T12:45:44;7.63;;;2.72;;
24411;SDS011;12544;46.760;15.942;2023-04-22T12:48:14;5.45;;;2.58;;
24411;SDS011;12544;46.760;15.942;2023-04-22T12:50:40;4.72;;;2.83;;
24411;SDS011;12544;46.760;15.942;2023-04-22T12:53:05;4.57;;;2.45;;
24411;SDS011;12544;46.760;15.942;2023-04-22T12:55:31;6.03;;;3.10;;
24411;SDS011;12544;46.760;15.942;2023-04-22T12:57:58;4.10;;;2.78;;
24411;SDS011;12544;46.760;15.942;2023-04-22T13:00:23;4.60;;;2.97;;
24411;SDS011;12544;46.760;15.942;2023-04-22T13:02:50;4.07;;;2.90;;
24411;SDS011;12544;46.760;15.942;2023-04-22T13:05:16;3.58;;;3.13;;
24411;SDS011;12544;46.760;15.942;2023-04-22T13:07:43;7.63;;;3.38;;
24411;SDS011;12544;46.760;15.942;2023-04-22T13:10:10;4.32;;;2.97;;
24411;SDS011;12544;46.760;15.942;2023-04-22T13:12:42;3.67;;;2.83;;
24411;SDS011;12544;46.760;15.942;2023-04-22T13:15:08;4.70;;;2.70;;
24411;SDS011;12544;46.760;15.942;2023-04-22T13:17:35;3.42;;;2.40;;
24411;SDS011;12544;46.760;15.942;2023-04-22T13:20:02;2.80;;;2.55;;
24411;SDS011;12544;46.760;15.942;2023-04-22T13:22:29;4.25;;;3.20;;
24411;SDS011;12544;46.760;15.942;2023-04-22T13:24:54;3.65;;;3.10;;
24411;SDS011;12544;46.760;15.942;2023-04-22T13:27:20;8.95;;;3.13;;
24411;SDS011;12544;46.760;15.942;2023-04-22T13:29:46;3.65;;;2.63;;
24411;SDS011;12544;46.760;15.942;2023-04-22T13:32:11;3.22;;;2.85;;
24411;SDS011;12544;46.760;15.942;2023-04-22T13:34:37;4.93;;;3.28;;
24411;SDS011;12544;46.760;15.942;2023-04-22T13:37:04;3.17;;;2.78;;
24411;SDS011;12544;46.760;15.942;2023-04-22T13:39:30;3.45;;;2.45;;
24411;SDS011;12544;46.760;15.942;2023-04-22T13:41:56;3.55;;;2.33;;
24411;SDS011;12544;46.760;15.942;2023-04-22T13:44:22;4.60;;;3.20;;
24411;SDS011;12544;46.760;15.942;2023-04-22T13:46:48;4.10;;;2.65;;
24411;SDS011;12544;46.760;15.942;2023-04-22T13:49:14;5.25;;;3.20;;
24411;SDS011;12544;46.760;15.942;2023-04-22T13:51:39;4.95;;;2.75;;
24411;SDS011;12544;46.760;15.942;2023-04-22T13:54:05;4.28;;;2.78;;
24411;SDS011;12544;46.760;15.942;2023-04-22T13:56:31;3.20;;;2.53;;
24411;SDS011;12544;46.760;15.942;2023-04-22T13:58:58;8.20;;;3.95;;
24411;SDS011;12544;46.760;15.942;2023-04-22T14:01:24;2.70;;;2.50;;
24411;SDS011;12544;46.760;15.942;2023-04-22T14:03:55;3.65;;;2.92;;
24411;SDS011;12544;46.760;15.942;2023-04-22T14:06:21;4.57;;;2.47;;
24411;SDS011;12544;46.760;15.942;2023-04-22T14:08:47;5.65;;;2.78;;
24411;SDS011;12544;46.760;15.942;2023-04-22T14:11:12;3.20;;;2.88;;
24411;SDS011;12544;46.760;15.942;2023-04-22T14:13:38;7.18;;;2.65;;
24411;SDS011;12544;46.760;15.942;2023-04-22T14:16:04;4.10;;;2.95;;
24411;SDS011;12544;46.760;15.942;2023-04-22T14:18:35;3.72;;;2.38;;
24411;SDS011;12544;46.760;15.942;2023-04-22T14:21:02;3.95;;;3.08;;
24411;SDS011;12544;46.760;15.942;2023-04-22T14:23:33;6.18;;;2.80;;
24411;SDS011;12544;46.760;15.942;2023-04-22T14:26:00;4.22;;;3.17;;
24411;SDS011;12544;46.760;15.942;2023-04-22T14:28:26;5.82;;;2.97;;
24411;SDS011;12544;46.760;15.942;2023-04-22T14:30:52;4.57;;;2.90;;
24411;SDS011;12544;46.760;15.942;2023-04-22T14:33:18;3.70;;;2.58;;
24411;SDS011;12544;46.760;15.942;2023-04-22T14:35:44;6.88;;;2.67;;
24411;SDS011;12544;46.760;15.942;2023-04-22T14:38:09;3.50;;;2.72;;
24411;SDS011;12544;46.760;15.942;2023-04-22T14:40:36;4.40;;;2.65;;
24411;SDS011;12544;46.760;15.942;2023-04-22T14:43:03;5.10;;;3.15;;
24411;SDS011;12544;46.760;15.942;2023-04-22T14:45:29;3.85;;;2.67;;
24411;SDS011;12544;46.760;15.942;2023-04-22T14:47:56;6.95;;;3.15;;
24411;SDS011;12544;46.760;15.942;2023-04-22T14:50:22;5.63;;;2.72;;
24411;SDS011;12544;46.760;15.942;2023-04-22T14:52:49;5.38;;;2.90;;
24411;SDS011;12544;46.760;15.942;2023-04-22T14:55:16;3.85;;;3.03;;
24411;SDS011;12544;46.760;15.942;2023-04-22T14:57:42;3.70;;;2.92;;
24411;SDS011;12544;46.760;15.942;2023-04-22T15:00:08;3.17;;;2.72;;